Time;durP1;ratioP1;P1;durP2;ratioP2;P2;SDS_P1;SDS_P2;PMS_P1;PMS_P2;Temp;Humidity;BMP_temperature;BMP_pressure;BME280_temperature;BME280_humidity;BME280_pressure;Samples;Min_cycle;Max_cycle;Signal;HPM_P1;HPM_P2
2020/12/08 00:00:50;;;;;;;13.38;11.52;;;5.80;73.00;;;;;;5071914;28;20475;-60
2020/12/08 00:03:15;;;;;;;13.73;11.55;;;5.80;73.40;;;;;;5071815;28;20128;-60
2020/12/08 00:05:41;;;;;;;14.63;12.77;;;5.80;73.40;;;;;;5071157;28;20128;-61
2020/12/08 00:08:07;;;;;;;13.18;11.77;;;5.70;73.70;;;;;;5072131;28;20039;-56
2020/12/08 00:10:33;;;;;;;14.00;12.05;;;5.70;73.90;;;;;;5072008;28;20032;-60
2020/12/08 00:12:58;;;;;;;13.52;12.07;;;5.70;74.00;;;;;;5053939;28;20391;-58
2020/12/08 00:15:25;;;;;;;13.63;11.73;;;5.70;74.20;;;;;;5070511;28;20388;-56
2020/12/08 00:17:51;;;;;;;15.50;11.93;;;5.70;74.40;;;;;;5071719;28;20028;-55
2020/12/08 00:20:18;;;;;;;13.68;11.90;;;5.60;74.30;;;;;;5071756;28;20036;-56
2020/12/08 00:22:44;;;;;;;15.20;12.52;;;5.60;74.50;;;;;;5071480;28;20391;-57
2020/12/08 00:25:10;;;;;;;15.02;12.38;;;5.60;74.70;;;;;;5071581;28;20041;-58
2020/12/08 00:27:36;;;;;;;13.80;12.23;;;5.60;74.90;;;;;;5071376;28;20105;-59
2020/12/08 00:30:09;;;;;;;15.75;13.32;;;5.60;75.10;;;;;;5071624;28;20032;-60
2020/12/08 00:32:43;;;;;;;15.60;13.05;;;5.60;75.10;;;;;;5068886;28;20043;-59
2020/12/08 00:35:12;;;;;;;15.57;13.20;;;5.70;75.10;;;;;;5060782;28;20070;-61
2020/12/08 00:37:43;;;;;;;16.50;13.25;;;5.60;75.10;;;;;;5064794;28;20037;-58
2020/12/08 00:40:09;;;;;;;16.92;13.60;;;5.60;75.30;;;;;;5071516;28;20479;-57
2020/12/08 00:42:39;;;;;;;15.07;13.48;;;5.60;75.30;;;;;;5070444;28;20026;-60
2020/12/08 00:45:06;;;;;;;16.55;14.38;;;5.60;75.40;;;;;;5053255;28;20033;-61
2020/12/08 00:47:32;;;;;;;16.58;13.98;;;5.60;75.30;;;;;;5053396;28;20037;-60
2020/12/08 00:49:57;;;;;;;18.08;14.05;;;5.60;75.50;;;;;;5052989;28;20455;-60
2020/12/08 00:52:23;;;;;;;18.63;15.35;;;5.60;75.60;;;;;;5071273;28;20040;-61
2020/12/08 00:54:48;;;;;;;18.02;14.57;;;5.60;75.50;;;;;;5052741;28;20372;-63
2020/12/08 00:57:22;;;;;;;18.02;14.57;;;5.60;75.30;;;;;;5052825;28;20059;-61
2020/12/08 00:59:48;;;;;;;17.30;14.73;;;5.70;75.30;;;;;;5071564;28;20093;-60
2020/12/08 01:02:16;;;;;;;19.73;15.30;;;5.60;75.30;;;;;;5071405;28;20051;-60
2020/12/08 01:04:42;;;;;;;17.60;14.32;;;5.70;75.30;;;;;;5053107;28;20029;-56
2020/12/08 01:07:07;;;;;;;18.65;15.25;;;5.70;75.40;;;;;;5071139;28;20077;-58
2020/12/08 01:09:33;;;;;;;17.20;14.25;;;5.80;75.20;;;;;;5071344;28;20048;-59
2020/12/08 01:11:58;;;;;;;19.35;14.85;;;5.80;75.00;;;;;;5070828;28;20059;-58
2020/12/08 01:14:24;;;;;;;18.65;15.52;;;5.90;74.90;;;;;;5071008;28;20064;-57
2020/12/08 01:16:49;;;;;;;18.27;16.10;;;5.90;74.90;;;;;;5052836;28;20038;-58
2020/12/08 01:19:15;;;;;;;18.35;15.80;;;5.80;75.00;;;;;;5053200;28;20060;-62
2020/12/08 01:21:40;;;;;;;20.17;15.60;;;5.80;74.80;;;;;;5070811;28;20044;-62
2020/12/08 01:24:06;;;;;;;20.02;16.17;;;5.80;74.90;;;;;;5070941;28;20037;-62
2020/12/08 01:26:31;;;;;;;17.30;15.15;;;5.70;75.10;;;;;;5070661;28;20041;-62
2020/12/08 01:28:57;;;;;;;19.63;15.13;;;5.70;75.10;;;;;;5071066;28;20050;-62
2020/12/08 01:31:33;;;;;;;20.15;16.52;;;5.70;75.20;;;;;;5070891;28;20035;-63
2020/12/08 01:33:59;;;;;;;17.67;15.20;;;5.80;75.10;;;;;;5070539;28;20040;-62
2020/12/08 01:36:24;;;;;;;16.80;14.77;;;5.80;75.00;;;;;;5051671;28;20574;-63
2020/12/08 01:38:50;;;;;;;26.52;16.65;;;6.00;74.80;;;;;;5068976;28;20047;-62
2020/12/08 01:41:16;;;;;;;19.67;16.02;;;5.90;74.50;;;;;;5070945;28;20036;-61
2020/12/08 01:43:52;;;;;;;18.50;14.82;;;5.80;75.00;;;;;;5070631;28;20024;-61
2020/12/08 01:46:21;;;;;;;18.83;16.05;;;5.80;75.10;;;;;;5067656;28;20036;-62
2020/12/08 01:48:48;;;;;;;17.73;14.70;;;5.90;74.90;;;;;;5067263;28;20060;-62
2020/12/08 01:51:16;;;;;;;17.88;15.23;;;6.00;74.70;;;;;;5067114;28;20109;-61
2020/12/08 01:53:42;;;;;;;19.80;15.45;;;6.00;74.40;;;;;;5069736;28;20067;-62
2020/12/08 01:56:15;;;;;;;20.15;15.32;;;6.00;74.30;;;;;;5070104;28;20024;-61
2020/12/08 01:58:41;;;;;;;19.50;15.43;;;6.00;74.10;;;;;;5071621;28;20029;-62
2020/12/08 02:01:10;;;;;;;20.55;15.25;;;6.00;74.00;;;;;;5073892;28;20368;-62
2020/12/08 02:03:35;;;;;;;18.85;14.68;;;6.00;74.10;;;;;;5070804;28;20091;-62
2020/12/08 02:06:01;;;;;;;18.58;15.85;;;6.00;74.20;;;;;;5073078;28;20052;-62
2020/12/08 02:08:30;;;;;;;18.25;15.43;;;6.10;74.20;;;;;;5073319;28;20447;-62
2020/12/08 02:10:57;;;;;;;20.15;16.55;;;6.10;74.10;;;;;;5082883;22;20578;-82
2020/12/08 02:13:23;;;;;;;20.00;15.68;;;6.20;74.00;;;;;;5061911;28;20078;-83
2020/12/08 02:15:49;;;;;;;21.17;16.65;;;6.20;73.80;;;;;;5065080;28;20090;-83
2020/12/08 02:18:15;;;;;;;17.75;15.32;;;6.20;73.50;;;;;;5065762;28;20478;-82
2020/12/08 02:20:41;;;;;;;17.73;14.82;;;6.20;73.60;;;;;;5084999;28;20035;-83
2020/12/08 02:23:07;;;;;;;18.83;15.70;;;6.20;73.70;;;;;;5086467;28;20060;-83
2020/12/08 02:25:32;;;;;;;16.83;14.70;;;6.20;73.60;;;;;;5101855;28;20043;-84
2020/12/08 02:27:58;;;;;;;20.40;15.57;;;6.20;73.60;;;;;;5066819;28;20062;-83
2020/12/08 02:30:23;;;;;;;17.13;14.63;;;6.10;73.70;;;;;;5083858;28;20040;-84
2020/12/08 02:32:49;;;;;;;18.20;14.77;;;6.10;73.70;;;;;;5081728;28;20419;-83
2020/12/08 02:35:15;;;;;;;17.17;15.05;;;6.20;73.50;;;;;;5065323;28;20040;-82
2020/12/08 02:37:40;;;;;;;16.92;15.07;;;6.20;73.70;;;;;;5049109;28;20048;-83
2020/12/08 02:40:06;;;;;;;18.00;15.13;;;6.20;73.60;;;;;;5082534;28;20447;-82
2020/12/08 02:42:32;;;;;;;18.73;14.48;;;6.20;73.60;;;;;;5063575;28;20032;-82
2020/12/08 02:44:58;;;;;;;18.98;15.60;;;6.20;73.70;;;;;;5070455;28;20048;-83
2020/12/08 02:47:24;;;;;;;18.58;15.30;;;6.20;73.70;;;;;;5079116;28;20061;-83
2020/12/08 02:49:49;;;;;;;17.15;15.02;;;6.10;73.70;;;;;;5068941;28;20753;-83
2020/12/08 02:52:15;;;;;;;17.63;15.20;;;6.10;73.70;;;;;;5061493;28;20198;-83
2020/12/08 02:54:40;;;;;;;18.50;15.82;;;6.10;73.80;;;;;;5097569;28;20040;-82
2020/12/08 02:57:06;;;;;;;19.65;15.38;;;6.10;73.80;;;;;;5103566;28;20048;-81
2020/12/08 02:59:33;;;;;;;18.35;15.02;;;6.00;73.90;;;;;;5077229;28;20051;-81
2020/12/08 03:01:58;;;;;;;17.73;14.93;;;6.00;74.00;;;;;;5075420;28;20044;-83
2020/12/08 03:04:24;;;;;;;17.80;14.82;;;6.00;73.80;;;;;;5077700;28;20032;-82
2020/12/08 03:06:50;;;;;;;21.88;16.55;;;6.00;73.80;;;;;;5082673;28;20048;-83
2020/12/08 03:09:16;;;;;;;18.70;15.73;;;6.00;73.60;;;;;;5082197;28;20038;-82
2020/12/08 03:11:41;;;;;;;19.73;15.65;;;5.90;73.70;;;;;;5083176;28;20032;-84
2020/12/08 03:14:07;;;;;;;17.83;15.70;;;5.90;73.80;;;;;;5065035;28;20039;-83
2020/12/08 03:16:34;;;;;;;19.15;16.23;;;5.80;74.10;;;;;;5065715;28;20549;-84
2020/12/08 03:18:59;;;;;;;17.10;14.80;;;5.80;74.20;;;;;;5064883;28;20115;-84
2020/12/08 03:21:26;;;;;;;16.77;14.95;;;5.90;74.20;;;;;;5100036;28;20089;-84
2020/12/08 03:23:51;;;;;;;19.25;15.38;;;5.90;74.10;;;;;;5073944;28;20085;-83
2020/12/08 03:26:21;;;;;;;17.27;15.18;;;6.00;74.10;;;;;;5061994;28;20127;-83
2020/12/08 03:28:47;;;;;;;18.08;14.98;;;6.00;74.10;;;;;;5051256;28;20028;-84
2020/12/08 03:31:13;;;;;;;19.75;15.65;;;6.00;74.10;;;;;;5082256;28;20036;-83
2020/12/08 03:33:39;;;;;;;20.15;15.63;;;6.10;73.90;;;;;;5082110;28;20035;-83
2020/12/08 03:36:09;;;;;;;18.80;15.07;;;6.10;73.70;;;;;;5098471;28;20036;-82
2020/12/08 03:38:34;;;;;;;18.77;15.55;;;6.00;73.60;;;;;;5098062;28;20487;-81
2020/12/08 03:41:00;;;;;;;19.05;14.88;;;6.00;73.90;;;;;;5082216;28;20059;-82
2020/12/08 03:43:26;;;;;;;19.42;16.60;;;6.00;74.30;;;;;;5064680;28;20036;-84
2020/12/08 03:45:51;;;;;;;21.60;16.40;;;6.00;74.60;;;;;;5082013;28;20028;-81
2020/12/08 03:48:17;;;;;;;21.45;16.05;;;5.90;74.90;;;;;;5075748;28;20486;-81
2020/12/08 03:50:43;;;;;;;21.65;17.50;;;6.00;75.00;;;;;;5086475;28;20103;-81
2020/12/08 03:53:09;;;;;;;22.25;17.92;;;5.80;75.40;;;;;;5094659;28;20039;-81
2020/12/08 03:55:34;;;;;;;22.88;18.88;;;5.80;75.60;;;;;;5086618;28;20532;-81
2020/12/08 03:58:00;;;;;;;21.33;17.20;;;5.80;75.70;;;;;;5080639;28;20036;-82
2020/12/08 04:00:26;;;;;;;20.52;16.80;;;5.90;75.80;;;;;;5054962;28;20044;-80
2020/12/08 04:02:51;;;;;;;22.92;17.13;;;5.80;75.70;;;;;;5076750;28;20024;-81
2020/12/08 04:05:17;;;;;;;24.65;19.40;;;5.90;75.50;;;;;;5063567;28;20047;-83
2020/12/08 04:07:42;;;;;;;23.10;17.45;;;5.90;75.30;;;;;;5095684;28;20028;-82
2020/12/08 04:10:08;;;;;;;21.35;17.42;;;5.90;75.50;;;;;;5095896;28;20122;-83
2020/12/08 04:12:33;;;;;;;20.45;16.60;;;5.90;75.50;;;;;;5081726;28;20043;-81
2020/12/08 04:14:59;;;;;;;24.75;17.88;;;5.80;75.70;;;;;;5048815;28;20057;-83
2020/12/08 04:17:24;;;;;;;21.95;18.00;;;5.90;75.50;;;;;;5080975;28;20024;-82
2020/12/08 04:19:50;;;;;;;22.70;18.75;;;5.80;75.60;;;;;;5090979;28;20482;-83
2020/12/08 04:22:16;;;;;;;22.83;18.73;;;5.80;75.50;;;;;;5102265;28;20035;-80
2020/12/08 04:24:41;;;;;;;22.83;17.05;;;5.90;75.30;;;;;;5084202;28;20123;-84
2020/12/08 04:27:10;;;;;;;21.95;17.50;;;5.90;75.30;;;;;;5067333;28;20043;-83
2020/12/08 04:29:35;;;;;;;21.63;17.98;;;5.90;75.50;;;;;;5062585;28;20396;-82
2020/12/08 04:32:01;;;;;;;21.50;17.33;;;5.80;75.40;;;;;;5079618;28;20043;-84
2020/12/08 04:34:27;;;;;;;22.20;17.33;;;5.80;75.80;;;;;;5095530;28;20036;-83
2020/12/08 04:36:52;;;;;;;23.30;18.17;;;5.70;75.90;;;;;;5099314;28;20058;-83
2020/12/08 04:39:18;;;;;;;22.65;17.42;;;5.70;76.10;;;;;;5079182;28;20088;-83
2020/12/08 04:41:44;;;;;;;21.50;17.52;;;5.80;75.90;;;;;;5094800;28;20562;-81
2020/12/08 04:44:10;;;;;;;22.30;17.45;;;5.80;75.90;;;;;;5064352;28;20116;-83
2020/12/08 04:46:38;;;;;;;21.08;17.52;;;5.90;75.70;;;;;;5044322;28;20040;-83
2020/12/08 04:49:03;;;;;;;20.55;17.17;;;5.90;75.60;;;;;;5078664;28;20398;-83
2020/12/08 04:51:29;;;;;;;22.52;17.77;;;5.80;75.60;;;;;;5085231;28;20046;-84
2020/12/08 04:53:55;;;;;;;20.90;17.33;;;5.80;75.80;;;;;;5092199;28;20085;-84
2020/12/08 04:56:20;;;;;;;21.55;17.30;;;5.80;76.00;;;;;;5075866;28;20035;-82
2020/12/08 04:58:46;;;;;;;23.70;17.38;;;5.90;75.60;;;;;;5055943;28;20029;-84
2020/12/08 05:01:25;;;;;;;23.25;18.90;;;5.90;75.50;;;;;;5087313;28;20043;-82
2020/12/08 05:04:00;;;;;;;23.45;17.70;;;5.90;75.50;;;;;;5066788;28;20032;-83
2020/12/08 05:06:26;;;;;;;;;;;6.00;75.50;;;;;;5081906;28;20032;-81
2020/12/08 05:09:04;;;;;;;22.42;17.92;;;6.00;75.40;;;;;;5067915;28;19915;-82
2020/12/08 05:11:30;;;;;;;22.55;17.30;;;5.90;75.50;;;;;;5066157;28;20047;-83
2020/12/08 05:14:04;;;;;;;21.92;17.50;;;5.80;75.80;;;;;;5048282;28;20036;-83
2020/12/08 05:16:30;;;;;;;22.05;18.23;;;5.80;76.00;;;;;;5083646;28;20056;-82
2020/12/08 05:19:07;;;;;;;22.10;18.20;;;5.80;75.80;;;;;;5092359;28;20032;-81
2020/12/08 05:21:33;;;;;;;24.45;17.83;;;5.80;75.80;;;;;;5090904;28;20035;-81
2020/12/08 05:23:58;;;;;;;21.48;17.30;;;5.90;75.90;;;;;;5067446;28;20037;-82
2020/12/08 05:26:24;;;;;;;21.75;16.90;;;5.90;75.90;;;;;;5069690;28;20036;-83
2020/12/08 05:28:58;;;;;;;21.95;17.83;;;5.90;75.90;;;;;;5088710;28;20036;-81
2020/12/08 05:31:28;;;;;;;24.20;19.25;;;5.90;75.90;;;;;;5090585;28;20478;-82
2020/12/08 05:33:59;;;;;;;21.77;17.27;;;5.90;75.80;;;;;;5094745;28;20032;-82
2020/12/08 05:36:27;;;;;;;21.13;17.38;;;5.90;75.90;;;;;;5119915;28;20046;-79
2020/12/08 05:38:59;;;;;;;18.15;16.15;;;5.90;75.90;;;;;;5101633;28;20067;-80
2020/12/08 05:41:31;;;;;;;19.90;17.08;;;5.90;75.90;;;;;;5102041;28;20099;-81
2020/12/08 05:44:05;;;;;;;22.98;17.63;;;5.90;75.80;;;;;;5072956;28;20024;-83
2020/12/08 05:46:40;;;;;;;24.95;18.80;;;6.00;75.80;;;;;;5083637;28;20028;-82
2020/12/08 05:49:06;;;;;;;23.23;17.75;;;6.00;75.70;;;;;;5114275;28;20016;-82
2020/12/08 05:51:38;;;;;;;23.77;18.90;;;5.90;75.70;;;;;;5086319;28;20032;-81
2020/12/08 05:54:04;;;;;;;23.42;18.95;;;5.90;75.80;;;;;;5084215;28;20032;-82
2020/12/08 05:56:34;;;;;;;23.00;18.23;;;5.80;75.90;;;;;;5083683;28;20043;-83
2020/12/08 05:58:59;;;;;;;22.25;17.48;;;5.80;76.00;;;;;;5084663;28;20046;-84
2020/12/08 06:01:25;;;;;;;19.27;15.40;;;5.70;76.00;;;;;;5050858;28;20279;-83
2020/12/08 06:03:55;;;;;;;20.85;16.73;;;5.70;76.30;;;;;;5050429;28;20032;-81
2020/12/08 06:06:20;;;;;;;21.13;18.77;;;5.70;76.50;;;;;;5083750;28;20115;-80
2020/12/08 06:08:47;;;;;;;24.33;18.50;;;5.70;76.20;;;;;;5066577;28;20060;-80
2020/12/08 06:11:14;;;;;;;21.13;17.35;;;5.70;76.30;;;;;;5084121;28;20557;-83
2020/12/08 06:13:52;;;;;;;21.80;16.00;;;5.70;76.30;;;;;;5085327;28;20050;-81
2020/12/08 06:16:20;;;;;;;19.20;15.75;;;5.70;76.40;;;;;;5084191;28;20429;-83
2020/12/08 06:18:46;;;;;;;19.48;16.80;;;5.70;76.50;;;;;;5068743;28;20122;-82
2020/12/08 06:21:22;;;;;;;20.90;17.40;;;5.70;76.10;;;;;;5102485;28;20040;-82
2020/12/08 06:23:49;;;;;;;24.63;18.42;;;5.70;76.00;;;;;;5085348;28;20047;-81
2020/12/08 06:26:24;;;;;;;24.42;18.35;;;5.70;76.00;;;;;;5085028;28;20044;-81
2020/12/08 06:28:51;;;;;;;21.80;17.75;;;5.60;76.20;;;;;;5085519;28;20032;-83
2020/12/08 06:31:17;;;;;;;24.92;17.90;;;5.50;76.70;;;;;;5067108;28;20501;-81
2020/12/08 06:33:49;;;;;;;23.23;16.58;;;5.40;77.10;;;;;;5068497;28;20056;-83
2020/12/08 06:36:20;;;;;;;27.08;17.92;;;5.40;77.20;;;;;;5087865;28;20052;-82
2020/12/08 06:39:03;;;;;;;21.80;17.38;;;5.40;77.20;;;;;;5055191;28;20123;-82
2020/12/08 06:41:30;;;;;;;21.13;16.55;;;5.40;77.40;;;;;;5074679;28;20421;-82
2020/12/08 06:43:56;;;;;;;21.00;17.00;;;5.40;77.40;;;;;;5106586;28;20020;-81
2020/12/08 06:46:22;;;;;;;22.92;17.77;;;5.40;77.60;;;;;;5072991;28;20055;-82
2020/12/08 06:48:59;;;;;;;20.92;17.10;;;5.40;77.30;;;;;;5070028;28;20040;-83
2020/12/08 06:51:25;;;;;;;20.98;16.80;;;5.30;77.60;;;;;;5067496;28;20036;-82
2020/12/08 06:53:51;;;;;;;23.95;18.15;;;5.30;77.90;;;;;;5084496;28;20436;-83
2020/12/08 06:56:27;;;;;;;23.38;17.83;;;5.30;78.00;;;;;;5067521;28;20036;-83
2020/12/08 06:58:52;;;;;;;22.58;17.65;;;5.30;77.90;;;;;;5101073;28;20474;-82
2020/12/08 07:01:18;;;;;;;21.73;16.98;;;5.30;77.80;;;;;;5085415;28;20032;-80
2020/12/08 07:03:44;;;;;;;24.15;18.25;;;5.20;78.20;;;;;;5085834;28;20047;-80
2020/12/08 07:06:09;;;;;;;23.40;17.85;;;5.10;78.70;;;;;;5071488;28;20036;-80
2020/12/08 07:08:37;;;;;;;22.08;17.73;;;5.00;79.00;;;;;;5072681;28;20395;-80
2020/12/08 07:11:04;;;;;;;24.30;18.88;;;5.00;79.00;;;;;;5069010;28;20096;-82
2020/12/08 07:13:30;;;;;;;23.60;17.85;;;5.00;79.00;;;;;;5087481;28;20032;-81
2020/12/08 07:15:56;;;;;;;25.48;18.10;;;4.90;79.40;;;;;;5084682;28;20028;-81
2020/12/08 07:18:21;;;;;;;25.73;18.80;;;4.90;79.50;;;;;;5083509;28;20032;-83
2020/12/08 07:20:47;;;;;;;21.77;17.35;;;4.90;79.20;;;;;;5066771;28;20044;-82
2020/12/08 07:23:13;;;;;;;23.17;18.95;;;5.00;78.90;;;;;;5087530;28;20032;-83
2020/12/08 07:25:39;;;;;;;22.33;17.38;;;5.10;78.60;;;;;;5086328;28;20036;-81
2020/12/08 07:28:05;;;;;;;22.35;17.92;;;5.10;78.60;;;;;;5084801;28;20558;-82
2020/12/08 07:30:31;;;;;;;46.60;28.85;;;5.20;78.40;;;;;;5065863;28;20037;-82
2020/12/08 07:33:17;;;;;;;28.13;20.23;;;5.10;78.50;;;;;;5064207;28;20064;-82
2020/12/08 07:35:44;;;;;;;23.35;18.88;;;5.10;78.60;;;;;;5056845;28;20060;-82
2020/12/08 07:38:10;;;;;;;23.23;18.33;;;5.00;79.10;;;;;;5101871;28;20031;-83
2020/12/08 07:40:38;;;;;;;25.90;19.55;;;4.90;79.20;;;;;;5063473;28;20407;-82
2020/12/08 07:43:05;;;;;;;23.00;18.15;;;4.90;79.40;;;;;;5080074;28;20437;-82
2020/12/08 07:45:32;;;;;;;22.38;18.08;;;4.80;79.40;;;;;;5063735;28;20444;-81
2020/12/08 07:48:01;;;;;;;62.45;36.95;;;4.80;79.40;;;;;;5079665;28;20054;-81
2020/12/08 07:50:28;;;;;;;33.78;22.58;;;4.90;79.50;;;;;;5102649;28;20031;-81
2020/12/08 07:53:05;;;;;;;28.38;20.08;;;5.00;79.30;;;;;;5076690;28;20028;-81
2020/12/08 07:55:39;;;;;;;32.58;23.40;;;5.10;79.00;;;;;;5096350;28;20020;-80
2020/12/08 07:58:04;;;;;;;46.30;28.98;;;5.10;79.00;;;;;;5099985;28;20019;-79
2020/12/08 08:00:30;;;;;;;32.92;21.08;;;5.10;79.00;;;;;;5072922;28;20032;-82
2020/12/08 08:03:35;;;;;;;25.77;19.50;;;5.20;78.60;;;;;;5105392;28;20112;-83
2020/12/08 08:06:01;;;;;;;23.88;19.08;;;5.20;78.50;;;;;;4984246;28;20030;-83
2020/12/08 08:08:29;;;;;;;22.27;18.27;;;5.30;78.30;;;;;;4970008;28;20059;-80
2020/12/08 08:10:54;;;;;;;21.50;18.00;;;5.30;77.90;;;;;;5015295;28;20128;-81
2020/12/08 08:13:20;;;;;;;24.38;18.85;;;5.40;77.80;;;;;;5050202;28;20442;-81
2020/12/08 08:15:46;;;;;;;26.25;20.63;;;5.50;77.40;;;;;;5052408;28;20115;-81
2020/12/08 08:18:12;;;;;;;26.65;20.35;;;5.40;77.80;;;;;;5052680;28;20037;-81
2020/12/08 08:20:38;;;;;;;23.50;18.42;;;5.40;77.80;;;;;;5079226;28;20099;-81
2020/12/08 08:23:03;;;;;;;23.77;18.42;;;5.40;77.40;;;;;;5054062;28;20055;-81
2020/12/08 08:25:29;;;;;;;22.88;19.25;;;5.40;77.80;;;;;;5072833;28;20024;-81
2020/12/08 08:27:55;;;;;;;26.90;21.00;;;5.30;77.70;;;;;;5064936;23;20422;-61
2020/12/08 08:30:20;;;;;;;27.00;20.10;;;5.30;78.20;;;;;;5051084;28;20479;-60
2020/12/08 08:32:46;;;;;;;26.02;19.70;;;5.40;78.10;;;;;;5066767;28;20032;-61
2020/12/08 08:35:11;;;;;;;27.27;20.27;;;5.40;77.80;;;;;;5072125;28;20407;-61
2020/12/08 08:37:37;;;;;;;24.65;19.80;;;5.60;77.40;;;;;;5072604;28;20506;-60
2020/12/08 08:40:03;;;;;;;29.08;21.80;;;5.60;77.30;;;;;;5073860;28;20064;-61
2020/12/08 08:42:30;;;;;;;26.08;21.10;;;5.70;77.20;;;;;;5075312;28;20029;-60
2020/12/08 08:44:58;;;;;;;25.27;19.80;;;5.70;77.20;;;;;;5076349;28;20089;-61
2020/12/08 08:47:23;;;;;;;25.88;19.85;;;5.80;77.10;;;;;;5077978;28;20122;-62
2020/12/08 08:49:49;;;;;;;25.60;20.05;;;5.80;76.90;;;;;;5074705;28;20181;-61
2020/12/08 08:52:15;;;;;;;24.13;19.13;;;5.80;76.70;;;;;;5071131;28;20040;-61
2020/12/08 08:54:40;;;;;;;23.08;18.27;;;6.00;76.40;;;;;;5070463;28;20100;-61
2020/12/08 08:57:06;;;;;;;22.75;18.65;;;6.10;75.90;;;;;;5070631;28;20037;-61
2020/12/08 08:59:31;;;;;;;24.90;19.60;;;6.10;76.30;;;;;;5071754;28;20036;-61
2020/12/08 09:01:57;;;;;;;24.50;19.83;;;6.20;77.20;;;;;;5071654;28;20048;-60
2020/12/08 09:04:23;;;;;;;27.73;20.42;;;6.30;76.20;;;;;;5071562;28;20044;-60
2020/12/08 09:06:48;;;;;;;23.75;18.95;;;6.30;75.60;;;;;;5073046;28;20052;-60
2020/12/08 09:09:14;;;;;;;25.25;19.73;;;6.30;75.50;;;;;;5075949;28;20503;-62
2020/12/08 09:11:40;;;;;;;20.95;18.70;;;6.40;75.10;;;;;;5076241;28;20028;-61
2020/12/08 09:14:06;;;;;;;25.65;20.02;;;6.50;74.70;;;;;;5057360;28;20104;-61
2020/12/08 09:16:32;;;;;;;24.55;19.73;;;6.60;74.40;;;;;;5074253;28;20483;-62
2020/12/08 09:18:58;;;;;;;25.08;19.27;;;6.50;74.20;;;;;;5074169;28;20085;-61
2020/12/08 09:21:24;;;;;;;23.17;18.42;;;6.60;74.30;;;;;;5074514;28;20025;-59
2020/12/08 09:23:49;;;;;;;27.02;20.45;;;6.60;74.30;;;;;;5075593;28;20028;-61
2020/12/08 09:26:15;;;;;;;26.65;19.88;;;6.60;74.30;;;;;;5073162;28;20082;-61
2020/12/08 09:28:42;;;;;;;24.80;19.63;;;6.60;74.40;;;;;;5073873;28;20044;-59
2020/12/08 09:31:10;;;;;;;26.75;19.92;;;6.50;74.50;;;;;;5075372;28;20506;-60
2020/12/08 09:33:39;;;;;;;23.15;18.98;;;6.50;74.50;;;;;;5069870;28;20041;-62
2020/12/08 09:36:05;;;;;;;26.42;19.80;;;6.60;74.50;;;;;;5073785;28;20079;-62
2020/12/08 09:38:31;;;;;;;25.52;19.63;;;6.60;74.40;;;;;;5059667;28;20061;-61
2020/12/08 09:40:56;;;;;;;24.98;20.42;;;6.60;74.20;;;;;;5075212;28;20036;-60
2020/12/08 09:43:22;;;;;;;30.45;19.95;;;6.70;74.10;;;;;;5074917;28;20037;-61
2020/12/08 09:45:48;;;;;;;28.95;23.08;;;6.70;73.90;;;;;;5074469;28;20048;-61
2020/12/08 09:48:13;;;;;;;30.65;23.33;;;6.80;73.90;;;;;;5084981;28;20402;-60
2020/12/08 09:50:39;;;;;;;26.42;21.25;;;6.80;73.80;;;;;;5075172;28;20051;-61
2020/12/08 09:53:05;;;;;;;25.67;20.88;;;6.80;73.80;;;;;;5074822;28;20060;-61
2020/12/08 09:55:30;;;;;;;30.35;21.25;;;6.70;74.00;;;;;;5072793;28;20541;-62
2020/12/08 09:57:56;;;;;;;26.65;20.73;;;6.80;74.10;;;;;;5062793;28;20087;-62
2020/12/08 10:00:22;;;;;;;26.38;21.17;;;6.80;73.70;;;;;;5074509;28;20032;-62
2020/12/08 10:02:50;;;;;;;25.98;21.13;;;6.90;73.80;;;;;;5073972;28;20586;-60
2020/12/08 10:05:16;;;;;;;23.00;19.13;;;7.00;73.50;;;;;;5073843;28;20084;-62
2020/12/08 10:07:42;;;;;;;24.08;20.27;;;7.00;73.40;;;;;;5064037;28;20037;-61
2020/12/08 10:10:10;;;;;;;25.92;20.45;;;7.00;73.30;;;;;;5066977;28;20036;-61
2020/12/08 10:12:36;;;;;;;27.27;22.02;;;7.10;72.90;;;;;;5075565;28;20444;-61
2020/12/08 10:15:04;;;;;;;28.02;21.77;;;7.20;72.60;;;;;;5074132;28;20060;-60
2020/12/08 10:17:30;;;;;;;24.17;19.98;;;7.30;72.50;;;;;;5072786;28;20033;-60
2020/12/08 10:19:56;;;;;;;27.67;21.90;;;7.30;72.50;;;;;;5073080;28;20036;-62
2020/12/08 10:22:24;;;;;;;27.52;21.88;;;7.40;71.90;;;;;;5075357;28;20028;-61
2020/12/08 10:24:50;;;;;;;27.70;21.75;;;7.40;72.00;;;;;;5078859;28;20032;-62
2020/12/08 10:27:16;;;;;;;34.30;24.42;;;7.40;72.60;;;;;;5076750;28;20048;-61
2020/12/08 10:29:41;;;;;;;30.48;24.45;;;7.30;72.20;;;;;;5074019;28;20086;-63
2020/12/08 10:32:07;;;;;;;32.25;24.17;;;7.20;72.70;;;;;;5074049;28;20052;-61
2020/12/08 10:34:32;;;;;;;33.97;24.92;;;7.30;72.70;;;;;;5073823;28;20021;-60
2020/12/08 10:36:58;;;;;;;30.92;24.20;;;7.30;72.80;;;;;;5071744;28;20047;-61
2020/12/08 10:39:24;;;;;;;32.97;24.77;;;7.40;72.90;;;;;;5072973;28;20119;-61
2020/12/08 10:41:53;;;;;;;31.50;23.85;;;7.40;73.00;;;;;;5072644;28;20032;-63
2020/12/08 10:44:18;;;;;;;35.88;23.95;;;7.30;73.20;;;;;;5073240;28;20596;-58
2020/12/08 10:46:44;;;;;;;32.95;24.10;;;7.50;78.90;;;;;;5055865;28;20044;-61
2020/12/08 10:49:10;;;;;;;35.72;24.92;;;7.70;74.20;;;;;;5083236;28;20044;-61
2020/12/08 10:51:35;;;;;;;32.05;23.25;;;7.90;73.00;;;;;;5073725;28;20522;-61
2020/12/08 10:54:01;;;;;;;36.08;23.67;;;8.10;72.40;;;;;;5071359;28;20032;-61
2020/12/08 10:56:27;;;;;;;39.63;24.33;;;8.40;70.50;;;;;;5055487;28;20046;-60
2020/12/08 10:58:54;;;;;;;35.45;24.15;;;8.30;69.80;;;;;;5073505;28;20470;-58
2020/12/08 11:01:21;;;;;;;34.33;25.05;;;8.30;69.80;;;;;;5073289;28;20505;-61
2020/12/08 11:03:48;;;;;;;33.55;24.38;;;8.20;70.50;;;;;;5072828;28;20158;-59
2020/12/08 11:06:21;;;;;;;40.72;25.13;;;8.10;70.40;;;;;;5088736;28;20036;-60
2020/12/08 11:08:47;;;;;;;30.30;23.83;;;8.10;70.60;;;;;;5071954;28;20040;-61
2020/12/08 11:11:19;;;;;;;27.98;22.67;;;7.80;70.80;;;;;;5055401;28;20079;-61
2020/12/08 11:13:45;;;;;;;34.13;22.48;;;7.70;71.30;;;;;;5071577;28;20029;-60
2020/12/08 11:16:10;;;;;;;33.78;24.23;;;7.70;71.40;;;;;;5072358;28;20049;-61
2020/12/08 11:18:36;;;;;;;31.23;23.00;;;7.70;71.70;;;;;;5071647;28;20059;-60
2020/12/08 11:21:02;;;;;;;29.63;22.27;;;7.70;71.70;;;;;;5073411;28;20044;-62
2020/12/08 11:23:27;;;;;;;31.40;22.83;;;7.70;71.60;;;;;;5071529;28;20491;-61
2020/12/08 11:25:53;;;;;;;26.00;22.20;;;7.80;71.10;;;;;;5072756;28;20535;-62
2020/12/08 11:28:19;;;;;;;28.20;21.65;;;7.90;71.00;;;;;;5072302;28;20059;-62
2020/12/08 11:30:45;;;;;;;28.58;21.58;;;7.90;70.90;;;;;;5071296;28;20068;-61
2020/12/08 11:33:10;;;;;;;27.42;22.17;;;7.90;71.20;;;;;;5072499;28;20035;-61
2020/12/08 11:35:36;;;;;;;32.03;23.42;;;8.00;71.10;;;;;;5071006;28;20040;-61
2020/12/08 11:38:01;;;;;;;28.02;21.92;;;7.90;71.20;;;;;;5072163;28;20036;-61
2020/12/08 11:40:27;;;;;;;34.33;23.77;;;8.00;71.00;;;;;;5054943;28;20037;-61
2020/12/08 11:42:53;;;;;;;33.10;21.75;;;7.90;70.80;;;;;;5070853;28;20036;-59
2020/12/08 11:45:18;;;;;;;29.77;21.10;;;7.90;71.10;;;;;;5072237;28;20072;-61
2020/12/08 11:47:44;;;;;;;30.85;21.98;;;7.90;71.00;;;;;;5072143;28;20430;-60
2020/12/08 11:50:11;;;;;;;30.50;22.00;;;8.00;70.40;;;;;;5071910;28;20044;-61
2020/12/08 11:52:36;;;;;;;28.63;21.80;;;8.00;70.30;;;;;;5072327;28;20032;-61
2020/12/08 11:55:06;;;;;;;29.25;21.50;;;8.10;70.10;;;;;;5071999;28;20037;-62
2020/12/08 11:57:32;;;;;;;29.73;22.08;;;8.10;69.90;;;;;;5072039;28;20036;-61
2020/12/08 11:59:57;;;;;;;32.60;21.80;;;8.20;70.20;;;;;;5069338;28;20039;-62
2020/12/08 12:02:23;;;;;;;24.75;20.02;;;8.20;69.60;;;;;;5071036;28;20512;-61
2020/12/08 12:04:49;;;;;;;28.45;20.33;;;8.20;68.50;;;;;;5068571;28;20025;-59
2020/12/08 12:07:14;;;;;;;23.13;18.60;;;8.10;68.10;;;;;;5069780;28;20040;-60
2020/12/08 12:09:40;;;;;;;24.67;19.75;;;8.10;68.40;;;;;;5072543;28;20052;-64
2020/12/08 12:12:06;;;;;;;27.98;20.50;;;8.20;68.20;;;;;;5056832;28;20037;-62
2020/12/08 12:14:31;;;;;;;30.92;22.15;;;8.00;68.10;;;;;;5071997;28;20041;-61
2020/12/08 12:16:57;;;;;;;26.50;19.67;;;8.00;68.30;;;;;;5072260;28;20037;-60
2020/12/08 12:19:23;;;;;;;26.77;21.08;;;8.00;68.10;;;;;;5053841;28;20118;-60
2020/12/08 12:21:49;;;;;;;27.42;21.20;;;7.90;68.50;;;;;;5058894;28;20483;-62
2020/12/08 12:24:14;;;;;;;28.40;19.63;;;8.00;68.20;;;;;;5056536;28;20120;-60
2020/12/08 12:26:40;;;;;;;27.55;19.90;;;8.00;68.20;;;;;;5067979;28;20115;-60
2020/12/08 12:29:06;;;;;;;27.73;19.73;;;8.00;68.00;;;;;;5070729;28;20047;-61
2020/12/08 12:31:32;;;;;;;23.38;19.00;;;8.10;67.90;;;;;;5071882;28;20024;-61
2020/12/08 12:33:57;;;;;;;32.97;21.33;;;8.10;67.90;;;;;;5071702;28;20059;-60
2020/12/08 12:36:23;;;;;;;26.67;20.15;;;8.00;68.10;;;;;;5071854;28;20483;-62